sensor_id;sensor_type;location;lat;lon;timestamp;P1;durP1;ratioP1;P2;durP2;ratioP2
22648;SDS011;11491;41.942;24.220;2023-04-24T00:01:46;19.58;;;11.98;;
22648;SDS011;11491;41.942;24.220;2023-04-24T00:04:14;15.48;;;10.38;;
22648;SDS011;11491;41.942;24.220;2023-04-24T00:06:42;15.23;;;10.32;;
22648;SDS011;11491;41.942;24.220;2023-04-24T00:09:09;14.88;;;10.25;;
22648;SDS011;11491;41.942;24.220;2023-04-24T00:11:36;19.98;;;13.25;;
22648;SDS011;11491;41.942;24.220;2023-04-24T00:14:02;20.70;;;15.35;;
22648;SDS011;11491;41.942;24.220;2023-04-24T00:16:29;19.42;;;13.80;;
22648;SDS011;11491;41.942;24.220;2023-04-24T00:18:56;19.67;;;13.55;;
22648;SDS011;11491;41.942;24.220;2023-04-24T00:21:24;16.50;;;11.98;;
22648;SDS011;11491;41.942;24.220;2023-04-24T00:23:51;19.48;;;11.85;;
22648;SDS011;11491;41.942;24.220;2023-04-24T00:26:19;19.52;;;11.50;;
22648;SDS011;11491;41.942;24.220;2023-04-24T00:28:46;16.75;;;10.20;;
22648;SDS011;11491;41.942;24.220;2023-04-24T00:31:12;20.13;;;13.27;;
22648;SDS011;11491;41.942;24.220;2023-04-24T00:33:39;23.13;;;14.68;;
22648;SDS011;11491;41.942;24.220;2023-04-24T00:36:06;17.90;;;12.32;;
22648;SDS011;11491;41.942;24.220;2023-04-24T00:38:34;18.77;;;12.55;;
22648;SDS011;11491;41.942;24.220;2023-04-24T00:41:01;23.63;;;14.18;;
22648;SDS011;11491;41.942;24.220;2023-04-24T00:43:28;26.52;;;16.27;;
22648;SDS011;11491;41.942;24.220;2023-04-24T00:45:54;30.73;;;16.70;;
22648;SDS011;11491;41.942;24.220;2023-04-24T00:48:21;21.45;;;13.55;;
22648;SDS011;11491;41.942;24.220;2023-04-24T00:50:50;22.02;;;14.85;;
22648;SDS011;11491;41.942;24.220;2023-04-24T00:53:16;32.50;;;17.27;;
22648;SDS011;11491;41.942;24.220;2023-04-24T00:55:45;22.48;;;14.13;;
22648;SDS011;11491;41.942;24.220;2023-04-24T00:58:12;22.30;;;13.32;;
22648;SDS011;11491;41.942;24.220;2023-04-24T01:00:39;23.25;;;15.07;;
22648;SDS011;11491;41.942;24.220;2023-04-24T01:03:05;24.92;;;13.85;;
22648;SDS011;11491;41.942;24.220;2023-04-24T01:05:33;27.40;;;14.38;;
22648;SDS011;11491;41.942;24.220;2023-04-24T01:08:00;17.20;;;12.90;;
22648;SDS011;11491;41.942;24.220;2023-04-24T01:10:28;36.78;;;18.38;;
22648;SDS011;11491;41.942;24.220;2023-04-24T01:12:59;31.15;;;16.05;;
22648;SDS011;11491;41.942;24.220;2023-04-24T01:15:25;27.70;;;15.23;;
22648;SDS011;11491;41.942;24.220;2023-04-24T01:17:52;25.05;;;15.80;;
22648;SDS011;11491;41.942;24.220;2023-04-24T01:20:19;25.27;;;15.75;;
22648;SDS011;11491;41.942;24.220;2023-04-24T01:22:48;24.23;;;15.27;;
22648;SDS011;11491;41.942;24.220;2023-04-24T01:25:15;27.50;;;16.33;;
22648;SDS011;11491;41.942;24.220;2023-04-24T01:27:41;23.67;;;15.70;;
22648;SDS011;11491;41.942;24.220;2023-04-24T01:30:09;22.15;;;13.75;;
22648;SDS011;11491;41.942;24.220;2023-04-24T01:32:36;20.10;;;13.00;;
22648;SDS011;11491;41.942;24.220;2023-04-24T01:35:04;20.95;;;12.60;;
22648;SDS011;11491;41.942;24.220;2023-04-24T01:37:32;16.10;;;12.00;;
22648;SDS011;11491;41.942;24.220;2023-04-24T01:40:00;18.88;;;12.80;;
22648;SDS011;11491;41.942;24.220;2023-04-24T01:42:28;18.92;;;11.18;;
22648;SDS011;11491;41.942;24.220;2023-04-24T01:44:56;17.33;;;11.65;;
22648;SDS011;11491;41.942;24.220;2023-04-24T01:47:23;16.65;;;11.00;;
22648;SDS011;11491;41.942;24.220;2023-04-24T01:49:50;16.80;;;11.80;;
22648;SDS011;11491;41.942;24.220;2023-04-24T01:52:17;18.13;;;11.57;;
22648;SDS011;11491;41.942;24.220;2023-04-24T01:54:44;17.80;;;11.68;;
22648;SDS011;11491;41.942;24.220;2023-04-24T01:57:13;15.93;;;11.88;;
22648;SDS011;11491;41.942;24.220;2023-04-24T01:59:39;15.23;;;11.15;;
22648;SDS011;11491;41.942;24.220;2023-04-24T02:02:06;14.93;;;10.98;;
22648;SDS011;11491;41.942;24.220;2023-04-24T02:04:33;16.25;;;11.52;;
22648;SDS011;11491;41.942;24.220;2023-04-24T02:07:00;15.07;;;10.48;;
22648;SDS011;11491;41.942;24.220;2023-04-24T02:09:27;17.40;;;12.55;;
22648;SDS011;11491;41.942;24.220;2023-04-24T02:11:53;15.20;;;10.60;;
22648;SDS011;11491;41.942;24.220;2023-04-24T02:14:22;14.70;;;10.55;;
22648;SDS011;11491;41.942;24.220;2023-04-24T02:16:49;18.08;;;11.45;;
22648;SDS011;11491;41.942;24.220;2023-04-24T02:19:16;17.63;;;11.98;;
22648;SDS011;11491;41.942;24.220;2023-04-24T02:21:42;16.88;;;10.70;;
22648;SDS011;11491;41.942;24.220;2023-04-24T02:24:09;16.65;;;11.70;;
22648;SDS011;11491;41.942;24.220;2023-04-24T02:26:36;15.70;;;10.68;;
22648;SDS011;11491;41.942;24.220;2023-04-24T02:29:03;13.77;;;10.52;;
22648;SDS011;11491;41.942;24.220;2023-04-24T02:31:31;15.00;;;10.27;;
22648;SDS011;11491;41.942;24.220;2023-04-24T02:33:57;16.20;;;10.65;;
22648;SDS011;11491;41.942;24.220;2023-04-24T02:36:24;14.98;;;10.00;;
22648;SDS011;11491;41.942;24.220;2023-04-24T02:38:51;13.88;;;9.73;;
22648;SDS011;11491;41.942;24.220;2023-04-24T02:41:18;21.92;;;11.70;;
22648;SDS011;11491;41.942;24.220;2023-04-24T02:43:44;15.77;;;11.50;;
22648;SDS011;11491;41.942;24.220;2023-04-24T02:46:11;13.25;;;10.10;;
22648;SDS011;11491;41.942;24.220;2023-04-24T02:48:39;14.50;;;10.27;;
22648;SDS011;11491;41.942;24.220;2023-04-24T02:51:06;16.02;;;10.93;;
22648;SDS011;11491;41.942;24.220;2023-04-24T02:53:33;15.90;;;11.23;;
22648;SDS011;11491;41.942;24.220;2023-04-24T02:56:00;16.75;;;12.88;;
22648;SDS011;11491;41.942;24.220;2023-04-24T02:58:26;18.65;;;12.95;;
22648;SDS011;11491;41.942;24.220;2023-04-24T03:00:53;16.55;;;11.13;;
22648;SDS011;11491;41.942;24.220;2023-04-24T03:03:21;20.95;;;14.68;;
22648;SDS011;11491;41.942;24.220;2023-04-24T03:05:50;27.33;;;18.55;;
22648;SDS011;11491;41.942;24.220;2023-04-24T03:08:17;25.55;;;17.38;;
22648;SDS011;11491;41.942;24.220;2023-04-24T03:10:43;25.02;;;16.90;;
22648;SDS011;11491;41.942;24.220;2023-04-24T03:13:10;24.90;;;17.17;;
22648;SDS011;11491;41.942;24.220;2023-04-24T03:15:37;24.92;;;15.90;;
22648;SDS011;11491;41.942;24.220;2023-04-24T03:18:04;21.15;;;14.55;;
22648;SDS011;11491;41.942;24.220;2023-04-24T03:20:30;23.10;;;16.95;;
22648;SDS011;11491;41.942;24.220;2023-04-24T03:22:58;25.45;;;20.48;;
22648;SDS011;11491;41.942;24.220;2023-04-24T03:25:25;25.85;;;17.63;;
22648;SDS011;11491;41.942;24.220;2023-04-24T03:27:52;24.83;;;18.65;;
22648;SDS011;11491;41.942;24.220;2023-04-24T03:30:19;30.90;;;23.85;;
22648;SDS011;11491;41.942;24.220;2023-04-24T03:32:46;34.17;;;23.25;;
22648;SDS011;11491;41.942;24.220;2023-04-24T03:35:13;39.95;;;27.02;;
22648;SDS011;11491;41.942;24.220;2023-04-24T03:37:40;47.55;;;32.55;;
22648;SDS011;11491;41.942;24.220;2023-04-24T03:40:08;60.35;;;43.13;;
22648;SDS011;11491;41.942;24.220;2023-04-24T03:42:35;58.80;;;43.22;;
22648;SDS011;11491;41.942;24.220;2023-04-24T03:45:02;61.30;;;42.75;;
22648;SDS011;11491;41.942;24.220;2023-04-24T03:47:30;59.92;;;40.55;;
22648;SDS011;11491;41.942;24.220;2023-04-24T03:49:56;51.22;;;36.33;;
22648;SDS011;11491;41.942;24.220;2023-04-24T03:52:23;49.05;;;33.80;;
22648;SDS011;11491;41.942;24.220;2023-04-24T03:54:50;34.50;;;24.80;;
22648;SDS011;11491;41.942;24.220;2023-04-24T03:57:18;29.38;;;21.02;;
22648;SDS011;11491;41.942;24.220;2023-04-24T03:59:45;42.00;;;30.23;;
22648;SDS011;11491;41.942;24.220;2023-04-24T04:02:11;67.03;;;44.58;;
22648;SDS011;11491;41.942;24.220;2023-04-24T04:04:38;126.80;;;77.65;;
22648;SDS011;11491;41.942;24.220;2023-04-24T04:07:05;67.18;;;44.72;;
22648;SDS011;11491;41.942;24.220;2023-04-24T04:09:31;52.35;;;35.72;;
22648;SDS011;11491;41.942;24.220;2023-04-24T04:11:59;32.33;;;21.17;;
22648;SDS011;11491;41.942;24.220;2023-04-24T04:14:27;28.02;;;19.70;;
22648;SDS011;11491;41.942;24.220;2023-04-24T04:16:54;58.05;;;43.45;;
22648;SDS011;11491;41.942;24.220;2023-04-24T04:19:21;71.60;;;48.70;;
22648;SDS011;11491;41.942;24.220;2023-04-24T04:21:47;62.05;;;42.28;;
22648;SDS011;11491;41.942;24.220;2023-04-24T04:24:18;92.68;;;61.80;;
22648;SDS011;11491;41.942;24.220;2023-04-24T04:26:45;98.80;;;69.25;;
22648;SDS011;11491;41.942;24.220;2023-04-24T04:29:12;93.70;;;63.78;;
22648;SDS011;11491;41.942;24.220;2023-04-24T04:31:41;97.25;;;65.85;;
22648;SDS011;11491;41.942;24.220;2023-04-24T04:34:08;107.72;;;71.55;;
22648;SDS011;11491;41.942;24.220;2023-04-24T04:36:35;129.87;;;85.67;;
22648;SDS011;11491;41.942;24.220;2023-04-24T04:39:02;126.18;;;84.15;;
22648;SDS011;11491;41.942;24.220;2023-04-24T04:41:29;109.63;;;71.82;;
22648;SDS011;11491;41.942;24.220;2023-04-24T04:43:55;94.43;;;64.20;;
22648;SDS011;11491;41.942;24.220;2023-04-24T04:46:23;104.25;;;72.43;;
22648;SDS011;11491;41.942;24.220;2023-04-24T04:48:53;102.63;;;67.63;;
22648;SDS011;11491;41.942;24.220;2023-04-24T04:51:19;108.95;;;73.53;;
22648;SDS011;11491;41.942;24.220;2023-04-24T04:53:46;105.78;;;72.85;;
22648;SDS011;11491;41.942;24.220;2023-04-24T04:56:13;106.22;;;74.70;;
22648;SDS011;11491;41.942;24.220;2023-04-24T04:58:40;122.88;;;85.03;;
22648;SDS011;11491;41.942;24.220;2023-04-24T05:01:06;106.68;;;74.90;;
22648;SDS011;11491;41.942;24.220;2023-04-24T05:03:33;92.47;;;64.13;;
22648;SDS011;11491;41.942;24.220;2023-04-24T05:06:02;71.22;;;48.10;;
22648;SDS011;11491;41.942;24.220;2023-04-24T05:08:29;60.35;;;45.28;;
22648;SDS011;11491;41.942;24.220;2023-04-24T05:10:56;89.20;;;69.82;;
22648;SDS011;11491;41.942;24.220;2023-04-24T05:13:22;62.40;;;47.42;;
22648;SDS011;11491;41.942;24.220;2023-04-24T05:15:49;67.45;;;49.70;;
22648;SDS011;11491;41.942;24.220;2023-04-24T05:18:16;61.40;;;45.10;;
22648;SDS011;11491;41.942;24.220;2023-04-24T05:20:43;62.75;;;44.58;;
22648;SDS011;11491;41.942;24.220;2023-04-24T05:23:11;68.88;;;48.47;;
22648;SDS011;11491;41.942;24.220;2023-04-24T05:25:38;65.70;;;46.83;;
22648;SDS011;11491;41.942;24.220;2023-04-24T05:28:05;65.95;;;47.97;;
22648;SDS011;11491;41.942;24.220;2023-04-24T05:30:32;79.50;;;55.80;;
22648;SDS011;11491;41.942;24.220;2023-04-24T05:32:58;57.28;;;41.72;;
22648;SDS011;11491;41.942;24.220;2023-04-24T05:35:25;42.92;;;31.90;;
22648;SDS011;11491;41.942;24.220;2023-04-24T05:37:52;36.92;;;27.40;;
22648;SDS011;11491;41.942;24.220;2023-04-24T05:40:20;36.60;;;26.33;;
22648;SDS011;11491;41.942;24.220;2023-04-24T05:42:47;40.35;;;29.80;;
22648;SDS011;11491;41.942;24.220;2023-04-24T05:45:14;22.38;;;16.90;;
22648;SDS011;11491;41.942;24.220;2023-04-24T05:47:42;29.92;;;21.70;;
22648;SDS011;11491;41.942;24.220;2023-04-24T05:50:09;36.20;;;24.15;;
22648;SDS011;11491;41.942;24.220;2023-04-24T05:52:36;34.22;;;25.20;;
22648;SDS011;11491;41.942;24.220;2023-04-24T05:55:03;47.75;;;31.85;;
22648;SDS011;11491;41.942;24.220;2023-04-24T05:57:31;35.13;;;26.15;;
22648;SDS011;11491;41.942;24.220;2023-04-24T05:59:58;19.40;;;13.88;;
22648;SDS011;11491;41.942;24.220;2023-04-24T06:02:25;15.98;;;13.27;;
22648;SDS011;11491;41.942;24.220;2023-04-24T06:04:52;25.95;;;19.70;;
22648;SDS011;11491;41.942;24.220;2023-04-24T06:07:19;22.25;;;14.30;;
22648;SDS011;11491;41.942;24.220;2023-04-24T06:09:46;16.58;;;12.05;;
22648;SDS011;11491;41.942;24.220;2023-04-24T06:12:13;16.05;;;13.38;;
22648;SDS011;11491;41.942;24.220;2023-04-24T06:14:41;17.58;;;14.80;;
22648;SDS011;11491;41.942;24.220;2023-04-24T06:17:07;17.23;;;13.13;;
22648;SDS011;11491;41.942;24.220;2023-04-24T06:19:34;18.17;;;14.48;;
22648;SDS011;11491;41.942;24.220;2023-04-24T06:22:01;17.90;;;12.70;;
22648;SDS011;11491;41.942;24.220;2023-04-24T06:24:27;17.95;;;11.63;;
22648;SDS011;11491;41.942;24.220;2023-04-24T06:26:54;47.72;;;33.83;;
22648;SDS011;11491;41.942;24.220;2023-04-24T06:29:22;16.88;;;13.05;;
22648;SDS011;11491;41.942;24.220;2023-04-24T06:31:50;21.70;;;15.32;;
22648;SDS011;11491;41.942;24.220;2023-04-24T06:34:17;20.15;;;16.08;;
22648;SDS011;11491;41.942;24.220;2023-04-24T06:36:43;20.90;;;16.63;;
22648;SDS011;11491;41.942;24.220;2023-04-24T06:39:10;31.90;;;23.40;;
22648;SDS011;11491;41.942;24.220;2023-04-24T06:41:37;37.35;;;26.38;;
22648;SDS011;11491;41.942;24.220;2023-04-24T06:44:05;16.75;;;12.63;;
22648;SDS011;11491;41.942;24.220;2023-04-24T06:46:32;19.67;;;12.82;;
22648;SDS011;11491;41.942;24.220;2023-04-24T06:49:00;13.32;;;9.60;;
22648;SDS011;11491;41.942;24.220;2023-04-24T06:51:27;13.18;;;10.88;;
22648;SDS011;11491;41.942;24.220;2023-04-24T06:53:54;13.77;;;8.95;;
22648;SDS011;11491;41.942;24.220;2023-04-24T06:56:21;13.75;;;10.00;;
22648;SDS011;11491;41.942;24.220;2023-04-24T06:58:48;16.17;;;12.18;;
22648;SDS011;11491;41.942;24.220;2023-04-24T07:01:15;13.75;;;10.48;;
22648;SDS011;11491;41.942;24.220;2023-04-24T07:03:41;12.93;;;9.90;;
22648;SDS011;11491;41.942;24.220;2023-04-24T07:06:09;13.13;;;10.27;;
22648;SDS011;11491;41.942;24.220;2023-04-24T07:08:37;12.85;;;9.52;;
22648;SDS011;11491;41.942;24.220;2023-04-24T07:11:04;14.40;;;11.10;;
22648;SDS011;11491;41.942;24.220;2023-04-24T07:13:31;11.35;;;9.95;;
22648;SDS011;11491;41.942;24.220;2023-04-24T07:16:00;16.70;;;12.23;;
22648;SDS011;11491;41.942;24.220;2023-04-24T07:18:27;16.25;;;12.15;;
22648;SDS011;11491;41.942;24.220;2023-04-24T07:20:54;13.02;;;10.52;;
22648;SDS011;11491;41.942;24.220;2023-04-24T07:23:22;10.90;;;8.75;;
22648;SDS011;11491;41.942;24.220;2023-04-24T07:25:49;12.25;;;8.88;;
22648;SDS011;11491;41.942;24.220;2023-04-24T07:28:16;8.43;;;7.63;;
22648;SDS011;11491;41.942;24.220;2023-04-24T07:30:43;8.38;;;7.35;;
22648;SDS011;11491;41.942;24.220;2023-04-24T07:33:10;8.05;;;7.13;;
22648;SDS011;11491;41.942;24.220;2023-04-24T07:35:38;14.13;;;10.88;;
22648;SDS011;11491;41.942;24.220;2023-04-24T07:38:05;22.88;;;17.90;;
22648;SDS011;11491;41.942;24.220;2023-04-24T07:40:33;8.95;;;7.13;;
22648;SDS011;11491;41.942;24.220;2023-04-24T07:42:59;10.93;;;9.27;;
22648;SDS011;11491;41.942;24.220;2023-04-24T07:45:26;10.77;;;8.80;;
22648;SDS011;11491;41.942;24.220;2023-04-24T07:47:53;11.10;;;9.02;;
22648;SDS011;11491;41.942;24.220;2023-04-24T07:50:20;12.50;;;8.05;;
22648;SDS011;11491;41.942;24.220;2023-04-24T07:52:47;9.00;;;7.60;;
22648;SDS011;11491;41.942;24.220;2023-04-24T07:55:13;9.73;;;8.70;;
22648;SDS011;11491;41.942;24.220;2023-04-24T07:57:42;13.00;;;11.63;;
22648;SDS011;11491;41.942;24.220;2023-04-24T08:00:09;10.65;;;9.63;;
22648;SDS011;11491;41.942;24.220;2023-04-24T08:02:36;9.65;;;8.57;;
22648;SDS011;11491;41.942;24.220;2023-04-24T08:05:03;11.07;;;9.45;;
22648;SDS011;11491;41.942;24.220;2023-04-24T08:07:31;11.93;;;7.78;;
22648;SDS011;11491;41.942;24.220;2023-04-24T08:09:57;8.88;;;7.35;;
22648;SDS011;11491;41.942;24.220;2023-04-24T08:12:24;12.52;;;10.98;;
22648;SDS011;11491;41.942;24.220;2023-04-24T08:14:52;12.95;;;11.02;;
22648;SDS011;11491;41.942;24.220;2023-04-24T08:17:19;9.32;;;8.43;;
22648;SDS011;11491;41.942;24.220;2023-04-24T08:19:46;8.13;;;7.32;;
22648;SDS011;11491;41.942;24.220;2023-04-24T08:22:13;9.82;;;8.88;;
22648;SDS011;11491;41.942;24.220;2023-04-24T08:24:40;10.15;;;8.82;;
22648;SDS011;11491;41.942;24.220;2023-04-24T08:27:07;11.75;;;7.93;;
22648;SDS011;11491;41.942;24.220;2023-04-24T08:29:34;26.05;;;20.77;;
22648;SDS011;11491;41.942;24.220;2023-04-24T08:32:02;18.00;;;15.57;;
22648;SDS011;11491;41.942;24.220;2023-04-24T08:34:29;14.15;;;12.75;;
22648;SDS011;11491;41.942;24.220;2023-04-24T08:36:56;8.30;;;6.72;;
22648;SDS011;11491;41.942;24.220;2023-04-24T08:39:23;12.25;;;10.95;;
22648;SDS011;11491;41.942;24.220;2023-04-24T08:41:50;18.80;;;16.23;;
22648;SDS011;11491;41.942;24.220;2023-04-24T08:44:18;8.70;;;7.80;;
22648;SDS011;11491;41.942;24.220;2023-04-24T08:46:46;8.40;;;7.60;;
22648;SDS011;11491;41.942;24.220;2023-04-24T08:49:16;10.38;;;9.27;;
22648;SDS011;11491;41.942;24.220;2023-04-24T08:51:44;8.88;;;7.97;;
22648;SDS011;11491;41.942;24.220;2023-04-24T08:54:12;9.25;;;8.20;;
22648;SDS011;11491;41.942;24.220;2023-04-24T08:56:39;9.65;;;8.02;;
22648;SDS011;11491;41.942;24.220;2023-04-24T08:59:09;9.52;;;7.88;;
22648;SDS011;11491;41.942;24.220;2023-04-24T09:01:37;21.80;;;15.82;;
22648;SDS011;11491;41.942;24.220;2023-04-24T09:04:07;9.20;;;7.40;;
22648;SDS011;11491;41.942;24.220;2023-04-24T09:06:37;10.52;;;9.30;;
22648;SDS011;11491;41.942;24.220;2023-04-24T09:09:04;15.80;;;11.32;;
22648;SDS011;11491;41.942;24.220;2023-04-24T09:11:31;13.88;;;9.40;;
22648;SDS011;11491;41.942;24.220;2023-04-24T09:13:58;14.07;;;10.85;;
22648;SDS011;11491;41.942;24.220;2023-04-24T09:16:26;12.32;;;10.20;;
22648;SDS011;11491;41.942;24.220;2023-04-24T09:18:54;10.35;;;9.35;;
22648;SDS011;11491;41.942;24.220;2023-04-24T09:21:22;14.20;;;10.13;;
22648;SDS011;11491;41.942;24.220;2023-04-24T09:23:58;10.38;;;9.25;;
22648;SDS011;11491;41.942;24.220;2023-04-24T09:26:29;9.45;;;8.45;;
22648;SDS011;11491;41.942;24.220;2023-04-24T09:28:58;38.95;;;22.52;;
22648;SDS011;11491;41.942;24.220;2023-04-24T09:31:26;14.15;;;12.52;;
22648;SDS011;11491;41.942;24.220;2023-04-24T09:33:55;9.00;;;7.35;;
22648;SDS011;11491;41.942;24.220;2023-04-24T09:36:26;8.65;;;6.93;;
22648;SDS011;11491;41.942;24.220;2023-04-24T09:38:57;8.65;;;6.10;;
22648;SDS011;11491;41.942;24.220;2023-04-24T09:41:26;7.90;;;7.10;;
22648;SDS011;11491;41.942;24.220;2023-04-24T09:43:53;12.18;;;7.85;;
22648;SDS011;11491;41.942;24.220;2023-04-24T09:46:21;8.15;;;7.13;;
22648;SDS011;11491;41.942;24.220;2023-04-24T09:48:56;10.70;;;6.68;;
22648;SDS011;11491;41.942;24.220;2023-04-24T09:51:32;8.63;;;7.78;;
22648;SDS011;11491;41.942;24.220;2023-04-24T09:54:03;9.68;;;7.82;;
22648;SDS011;11491;41.942;24.220;2023-04-24T09:56:32;12.43;;;9.30;;
22648;SDS011;11491;41.942;24.220;2023-04-24T09:59:05;11.93;;;9.55;;
22648;SDS011;11491;41.942;24.220;2023-04-24T10:01:33;12.75;;;10.20;;
22648;SDS011;11491;41.942;24.220;2023-04-24T10:03:59;12.75;;;8.90;;
22648;SDS011;11491;41.942;24.220;2023-04-24T10:06:31;16.42;;;10.98;;
22648;SDS011;11491;41.942;24.220;2023-04-24T10:08:59;18.10;;;9.02;;
22648;SDS011;11491;41.942;24.220;2023-04-24T10:11:28;10.38;;;8.25;;
22648;SDS011;11491;41.942;24.220;2023-04-24T10:13:56;10.18;;;8.23;;
22648;SDS011;11491;41.942;24.220;2023-04-24T10:16:23;11.00;;;9.00;;
22648;SDS011;11491;41.942;24.220;2023-04-24T10:18:52;10.52;;;8.60;;
22648;SDS011;11491;41.942;24.220;2023-04-24T10:21:19;10.20;;;8.40;;
22648;SDS011;11491;41.942;24.220;2023-04-24T10:23:46;9.38;;;6.63;;
22648;SDS011;11491;41.942;24.220;2023-04-24T10:26:15;20.33;;;14.23;;
22648;SDS011;11491;41.942;24.220;2023-04-24T10:28:46;23.30;;;15.45;;
22648;SDS011;11491;41.942;24.220;2023-04-24T10:31:13;30.20;;;21.25;;
22648;SDS011;11491;41.942;24.220;2023-04-24T10:33:41;29.52;;;20.33;;
22648;SDS011;11491;41.942;24.220;2023-04-24T10:36:09;32.17;;;20.08;;
22648;SDS011;11491;41.942;24.220;2023-04-24T10:38:38;31.25;;;19.83;;
22648;SDS011;11491;41.942;24.220;2023-04-24T10:41:07;29.40;;;20.75;;
22648;SDS011;11491;41.942;24.220;2023-04-24T10:43:38;18.83;;;12.98;;
22648;SDS011;11491;41.942;24.220;2023-04-24T10:46:07;32.60;;;20.13;;
22648;SDS011;11491;41.942;24.220;2023-04-24T10:48:35;25.17;;;15.23;;
22648;SDS011;11491;41.942;24.220;2023-04-24T10:51:10;17.55;;;13.82;;
22648;SDS011;11491;41.942;24.220;2023-04-24T10:53:38;21.65;;;14.70;;
22648;SDS011;11491;41.942;24.220;2023-04-24T10:56:05;31.17;;;23.65;;
22648;SDS011;11491;41.942;24.220;2023-04-24T10:58:36;41.65;;;31.48;;
22648;SDS011;11491;41.942;24.220;2023-04-24T11:01:06;42.45;;;21.08;;
22648;SDS011;11491;41.942;24.220;2023-04-24T11:03:34;24.38;;;12.90;;
22648;SDS011;11491;41.942;24.220;2023-04-24T11:06:02;23.38;;;16.52;;
22648;SDS011;11491;41.942;24.220;2023-04-24T11:08:31;14.13;;;11.85;;
22648;SDS011;11491;41.942;24.220;2023-04-24T11:11:03;12.82;;;9.68;;
22648;SDS011;11491;41.942;24.220;2023-04-24T11:16:47;15.60;;;12.57;;
22648;SDS011;11491;41.942;24.220;2023-04-24T11:19:20;11.82;;;10.10;;
22648;SDS011;11491;41.942;24.220;2023-04-24T11:21:54;14.88;;;9.80;;
22648;SDS011;11491;41.942;24.220;2023-04-24T11:24:31;17.33;;;12.30;;
22648;SDS011;11491;41.942;24.220;2023-04-24T11:27:00;21.83;;;15.10;;
22648;SDS011;11491;41.942;24.220;2023-04-24T11:29:42;22.05;;;18.05;;
22648;SDS011;11491;41.942;24.220;2023-04-24T11:32:19;51.42;;;39.05;;
22648;SDS011;11491;41.942;24.220;2023-04-24T11:34:51;36.72;;;28.63;;
22648;SDS011;11491;41.942;24.220;2023-04-24T11:37:19;24.35;;;18.35;;
22648;SDS011;11491;41.942;24.220;2023-04-24T11:39:45;45.03;;;32.30;;
22648;SDS011;11491;41.942;24.220;2023-04-24T11:42:13;18.80;;;16.45;;
22648;SDS011;11491;41.942;24.220;2023-04-24T11:44:41;21.08;;;18.00;;
22648;SDS011;11491;41.942;24.220;2023-04-24T11:47:08;20.45;;;16.65;;
22648;SDS011;11491;41.942;24.220;2023-04-24T11:49:37;21.65;;;16.17;;
22648;SDS011;11491;41.942;24.220;2023-04-24T11:52:04;15.23;;;12.88;;
22648;SDS011;11491;41.942;24.220;2023-04-24T11:54:31;20.60;;;14.85;;
22648;SDS011;11491;41.942;24.220;2023-04-24T11:56:58;9.38;;;7.53;;
22648;SDS011;11491;41.942;24.220;2023-04-24T11:59:25;20.95;;;18.42;;
22648;SDS011;11491;41.942;24.220;2023-04-24T12:01:52;11.93;;;10.32;;
22648;SDS011;11491;41.942;24.220;2023-04-24T12:04:18;11.20;;;9.57;;
22648;SDS011;11491;41.942;24.220;2023-04-24T12:07:02;10.10;;;8.60;;
22648;SDS011;11491;41.942;24.220;2023-04-24T12:09:39;7.40;;;6.70;;
22648;SDS011;11491;41.942;24.220;2023-04-24T12:12:07;9.50;;;6.88;;
22648;SDS011;11491;41.942;24.220;2023-04-24T12:14:41;14.65;;;11.95;;
22648;SDS011;11491;41.942;24.220;2023-04-24T12:17:09;14.77;;;10.60;;
22648;SDS011;11491;41.942;24.220;2023-04-24T12:19:35;14.52;;;9.57;;
22648;SDS011;11491;41.942;24.220;2023-04-24T12:22:04;10.48;;;7.30;;
22648;SDS011;11491;41.942;24.220;2023-04-24T12:24:32;20.27;;;12.35;;
22648;SDS011;11491;41.942;24.220;2023-04-24T12:26:58;19.17;;;16.52;;
22648;SDS011;11491;41.942;24.220;2023-04-24T12:29:26;23.65;;;18.63;;
22648;SDS011;11491;41.942;24.220;2023-04-24T12:31:53;74.22;;;41.50;;
22648;SDS011;11491;41.942;24.220;2023-04-24T12:34:20;28.05;;;20.92;;
22648;SDS011;11491;41.942;24.220;2023-04-24T12:36:48;15.45;;;13.55;;
22648;SDS011;11491;41.942;24.220;2023-04-24T12:39:17;14.48;;;11.82;;
22648;SDS011;11491;41.942;24.220;2023-04-24T12:41:50;14.85;;;10.55;;
22648;SDS011;11491;41.942;24.220;2023-04-24T12:44:28;20.25;;;16.15;;
22648;SDS011;11491;41.942;24.220;2023-04-24T12:49:21;12.02;;;10.10;;
22648;SDS011;11491;41.942;24.220;2023-04-24T12:51:48;21.35;;;17.52;;
22648;SDS011;11491;41.942;24.220;2023-04-24T12:54:16;54.58;;;38.72;;
22648;SDS011;11491;41.942;24.220;2023-04-24T12:56:43;19.92;;;14.73;;
22648;SDS011;11491;41.942;24.220;2023-04-24T12:59:10;14.65;;;12.27;;
22648;SDS011;11491;41.942;24.220;2023-04-24T13:01:37;10.90;;;9.75;;
22648;SDS011;11491;41.942;24.220;2023-04-24T13:04:04;47.15;;;31.52;;
22648;SDS011;11491;41.942;24.220;2023-04-24T13:06:31;46.75;;;29.83;;
22648;SDS011;11491;41.942;24.220;2023-04-24T13:08:58;15.77;;;11.95;;
22648;SDS011;11491;41.942;24.220;2023-04-24T13:11:26;18.75;;;13.40;;
22648;SDS011;11491;41.942;24.220;2023-04-24T13:13:53;13.50;;;11.32;;
22648;SDS011;11491;41.942;24.220;2023-04-24T13:16:20;12.10;;;10.80;;
22648;SDS011;11491;41.942;24.220;2023-04-24T13:18:48;28.83;;;24.02;;
22648;SDS011;11491;41.942;24.220;2023-04-24T13:21:15;16.80;;;11.57;;
22648;SDS011;11491;41.942;24.220;2023-04-24T13:23:42;18.17;;;16.30;;
22648;SDS011;11491;41.942;24.220;2023-04-24T13:26:08;30.38;;;27.40;;
22648;SDS011;11491;41.942;24.220;2023-04-24T13:28:37;25.45;;;22.77;;
22648;SDS011;11491;41.942;24.220;2023-04-24T13:31:03;54.75;;;40.08;;
22648;SDS011;11491;41.942;24.220;2023-04-24T13:33:31;36.80;;;29.92;;
22648;SDS011;11491;41.942;24.220;2023-04-24T13:35:58;62.25;;;52.80;;
22648;SDS011;11491;41.942;24.220;2023-04-24T13:38:24;52.63;;;41.63;;
22648;SDS011;11491;41.942;24.220;2023-04-24T13:40:51;40.03;;;29.45;;
22648;SDS011;11491;41.942;24.220;2023-04-24T13:43:18;20.15;;;16.27;;
22648;SDS011;11491;41.942;24.220;2023-04-24T13:45:46;25.80;;;21.20;;
22648;SDS011;11491;41.942;24.220;2023-04-24T13:48:13;33.38;;;26.23;;
22648;SDS011;11491;41.942;24.220;2023-04-24T13:50:40;61.80;;;48.13;;
22648;SDS011;11491;41.942;24.220;2023-04-24T13:53:07;62.65;;;43.97;;
22648;SDS011;11491;41.942;24.220;2023-04-24T13:55:34;82.50;;;50.50;;
22648;SDS011;11491;41.942;24.220;2023-04-24T13:58:00;116.78;;;68.40;;
22648;SDS011;11491;41.942;24.220;2023-04-24T14:00:27;63.58;;;40.42;;
22648;SDS011;11491;41.942;24.220;2023-04-24T14:02:55;22.83;;;17.30;;
22648;SDS011;11491;41.942;24.220;2023-04-24T14:05:22;26.08;;;18.55;;
22648;SDS011;11491;41.942;24.220;2023-04-24T14:07:50;23.13;;;16.90;;
22648;SDS011;11491;41.942;24.220;2023-04-24T14:10:17;16.08;;;12.73;;
22648;SDS011;11491;41.942;24.220;2023-04-24T14:12:44;15.25;;;13.52;;
22648;SDS011;11491;41.942;24.220;2023-04-24T14:15:10;14.15;;;12.70;;
22648;SDS011;11491;41.942;24.220;2023-04-24T14:17:38;20.08;;;14.50;;
22648;SDS011;11491;41.942;24.220;2023-04-24T14:20:07;29.10;;;23.83;;